sensor_id;sensor_type;location;lat;lon;timestamp;P1;durP1;ratioP1;P2;durP2;ratioP2
34541;SDS011;20784;51.332;12.410;2022-09-21T00:01:15;5.32;;;3.22;;
34541;SDS011;20784;51.332;12.410;2022-09-21T00:03:45;5.03;;;2.88;;
34541;SDS011;20784;51.332;12.410;2022-09-21T00:06:17;10.52;;;2.60;;
34541;SDS011;20784;51.332;12.410;2022-09-21T00:08:45;5.45;;;2.70;;
34541;SDS011;20784;51.332;12.410;2022-09-21T00:11:12;4.68;;;2.72;;
34541;SDS011;20784;51.332;12.410;2022-09-21T00:13:43;10.02;;;3.40;;
34541;SDS011;20784;51.332;12.410;2022-09-21T00:16:11;4.75;;;2.60;;
34541;SDS011;20784;51.332;12.410;2022-09-21T00:18:40;4.30;;;2.50;;
34541;SDS011;20784;51.332;12.410;2022-09-21T00:21:12;7.38;;;2.33;;
34541;SDS011;20784;51.332;12.410;2022-09-21T00:23:41;10.18;;;3.13;;
34541;SDS011;20784;51.332;12.410;2022-09-21T00:28:36;7.97;;;2.97;;
34541;SDS011;20784;51.332;12.410;2022-09-21T00:31:12;4.82;;;2.80;;
34541;SDS011;20784;51.332;12.410;2022-09-21T00:33:39;6.50;;;2.85;;
34541;SDS011;20784;51.332;12.410;2022-09-21T00:36:13;5.93;;;2.60;;
34541;SDS011;20784;51.332;12.410;2022-09-21T00:38:52;5.30;;;3.05;;
34541;SDS011;20784;51.332;12.410;2022-09-21T00:41:22;4.78;;;2.90;;
34541;SDS011;20784;51.332;12.410;2022-09-21T00:46:41;10.63;;;3.05;;
34541;SDS011;20784;51.332;12.410;2022-09-21T00:49:07;5.57;;;2.97;;
34541;SDS011;20784;51.332;12.410;2022-09-21T00:51:34;6.35;;;2.75;;
34541;SDS011;20784;51.332;12.410;2022-09-21T00:54:01;6.00;;;3.55;;
34541;SDS011;20784;51.332;12.410;2022-09-21T00:56:31;5.70;;;3.05;;
34541;SDS011;20784;51.332;12.410;2022-09-21T00:59:04;11.77;;;3.35;;
34541;SDS011;20784;51.332;12.410;2022-09-21T01:01:30;5.45;;;2.90;;
34541;SDS011;20784;51.332;12.410;2022-09-21T01:03:56;5.60;;;2.88;;
34541;SDS011;20784;51.332;12.410;2022-09-21T01:06:22;5.38;;;3.17;;
34541;SDS011;20784;51.332;12.410;2022-09-21T01:08:52;4.15;;;2.60;;
34541;SDS011;20784;51.332;12.410;2022-09-21T01:16:53;4.80;;;2.88;;
34541;SDS011;20784;51.332;12.410;2022-09-21T01:22:36;7.70;;;3.10;;
34541;SDS011;20784;51.332;12.410;2022-09-21T01:25:26;11.15;;;3.47;;
34541;SDS011;20784;51.332;12.410;2022-09-21T01:31:10;7.25;;;2.80;;
34541;SDS011;20784;51.332;12.410;2022-09-21T01:33:43;7.03;;;3.22;;
34541;SDS011;20784;51.332;12.410;2022-09-21T01:36:13;4.60;;;3.17;;
34541;SDS011;20784;51.332;12.410;2022-09-21T01:38:44;6.00;;;3.03;;
34541;SDS011;20784;51.332;12.410;2022-09-21T01:41:18;5.35;;;3.20;;
34541;SDS011;20784;51.332;12.410;2022-09-21T01:43:49;6.73;;;3.47;;
34541;SDS011;20784;51.332;12.410;2022-09-21T01:46:21;6.80;;;3.40;;
34541;SDS011;20784;51.332;12.410;2022-09-21T01:48:53;4.87;;;2.93;;
34541;SDS011;20784;51.332;12.410;2022-09-21T01:53:53;8.80;;;2.88;;
34541;SDS011;20784;51.332;12.410;2022-09-21T01:56:35;4.82;;;3.05;;
34541;SDS011;20784;51.332;12.410;2022-09-21T02:02:02;8.65;;;3.28;;
34541;SDS011;20784;51.332;12.410;2022-09-21T02:04:35;5.30;;;3.07;;
34541;SDS011;20784;51.332;12.410;2022-09-21T02:07:03;7.25;;;3.65;;
34541;SDS011;20784;51.332;12.410;2022-09-21T02:09:31;9.10;;;3.72;;
34541;SDS011;20784;51.332;12.410;2022-09-21T02:12:02;6.57;;;3.85;;
34541;SDS011;20784;51.332;12.410;2022-09-21T02:14:29;7.93;;;3.40;;
34541;SDS011;20784;51.332;12.410;2022-09-21T02:20:22;7.57;;;3.38;;
34541;SDS011;20784;51.332;12.410;2022-09-21T02:22:53;7.20;;;3.55;;
34541;SDS011;20784;51.332;12.410;2022-09-21T02:25:33;6.55;;;3.50;;
34541;SDS011;20784;51.332;12.410;2022-09-21T02:28:27;5.65;;;3.65;;
34541;SDS011;20784;51.332;12.410;2022-09-21T02:31:05;10.52;;;4.13;;
34541;SDS011;20784;51.332;12.410;2022-09-21T02:36:59;5.88;;;3.85;;
34541;SDS011;20784;51.332;12.410;2022-09-21T02:42:18;9.70;;;4.65;;
34541;SDS011;20784;51.332;12.410;2022-09-21T02:44:55;7.43;;;4.63;;
34541;SDS011;20784;51.332;12.410;2022-09-21T02:48:06;5.70;;;3.90;;
34541;SDS011;20784;51.332;12.410;2022-09-21T02:50:49;6.47;;;4.45;;
34541;SDS011;20784;51.332;12.410;2022-09-21T02:53:25;11.57;;;4.07;;
34541;SDS011;20784;51.332;12.410;2022-09-21T02:55:57;10.52;;;5.25;;
34541;SDS011;20784;51.332;12.410;2022-09-21T02:58:39;8.15;;;4.20;;
34541;SDS011;20784;51.332;12.410;2022-09-21T03:01:09;7.30;;;5.38;;
34541;SDS011;20784;51.332;12.410;2022-09-21T03:03:37;8.20;;;4.80;;
34541;SDS011;20784;51.332;12.410;2022-09-21T03:06:05;7.72;;;4.72;;
34541;SDS011;20784;51.332;12.410;2022-09-21T03:08:33;8.43;;;4.45;;
34541;SDS011;20784;51.332;12.410;2022-09-21T03:10:59;13.10;;;4.90;;
34541;SDS011;20784;51.332;12.410;2022-09-21T03:13:25;6.57;;;4.55;;
34541;SDS011;20784;51.332;12.410;2022-09-21T03:15:57;8.20;;;4.32;;
34541;SDS011;20784;51.332;12.410;2022-09-21T03:18:24;6.93;;;4.07;;
34541;SDS011;20784;51.332;12.410;2022-09-21T03:20:52;7.88;;;4.57;;
34541;SDS011;20784;51.332;12.410;2022-09-21T03:23:18;7.38;;;4.47;;
34541;SDS011;20784;51.332;12.410;2022-09-21T03:25:44;8.85;;;4.97;;
34541;SDS011;20784;51.332;12.410;2022-09-21T03:28:10;7.90;;;4.70;;
34541;SDS011;20784;51.332;12.410;2022-09-21T03:30:37;5.82;;;4.40;;
34541;SDS011;20784;51.332;12.410;2022-09-21T03:33:03;7.25;;;4.53;;
34541;SDS011;20784;51.332;12.410;2022-09-21T03:35:30;10.55;;;5.70;;
34541;SDS011;20784;51.332;12.410;2022-09-21T03:37:59;9.80;;;4.90;;
34541;SDS011;20784;51.332;12.410;2022-09-21T03:40:25;12.15;;;4.97;;
34541;SDS011;20784;51.332;12.410;2022-09-21T03:42:52;7.15;;;4.82;;
34541;SDS011;20784;51.332;12.410;2022-09-21T03:45:18;10.25;;;5.05;;
34541;SDS011;20784;51.332;12.410;2022-09-21T03:47:46;13.75;;;5.05;;
34541;SDS011;20784;51.332;12.410;2022-09-21T03:50:12;10.57;;;5.15;;
34541;SDS011;20784;51.332;12.410;2022-09-21T03:52:39;8.82;;;5.03;;
34541;SDS011;20784;51.332;12.410;2022-09-21T03:55:05;9.13;;;4.93;;
34541;SDS011;20784;51.332;12.410;2022-09-21T03:57:32;7.97;;;4.43;;
34541;SDS011;20784;51.332;12.410;2022-09-21T04:00:02;8.73;;;4.97;;
34541;SDS011;20784;51.332;12.410;2022-09-21T04:02:32;8.25;;;5.15;;
34541;SDS011;20784;51.332;12.410;2022-09-21T04:05:01;8.10;;;5.13;;
34541;SDS011;20784;51.332;12.410;2022-09-21T04:07:30;7.30;;;4.95;;
34541;SDS011;20784;51.332;12.410;2022-09-21T04:09:58;7.37;;;5.20;;
34541;SDS011;20784;51.332;12.410;2022-09-21T04:12:25;8.57;;;4.97;;
34541;SDS011;20784;51.332;12.410;2022-09-21T04:14:51;8.88;;;5.70;;
34541;SDS011;20784;51.332;12.410;2022-09-21T04:17:16;12.77;;;5.35;;
34541;SDS011;20784;51.332;12.410;2022-09-21T04:19:42;8.95;;;4.93;;
34541;SDS011;20784;51.332;12.410;2022-09-21T04:22:16;7.38;;;4.97;;
34541;SDS011;20784;51.332;12.410;2022-09-21T04:24:44;8.88;;;5.20;;
34541;SDS011;20784;51.332;12.410;2022-09-21T04:27:10;10.65;;;5.00;;
34541;SDS011;20784;51.332;12.410;2022-09-21T04:29:36;11.07;;;5.68;;
34541;SDS011;20784;51.332;12.410;2022-09-21T04:32:11;10.38;;;5.53;;
34541;SDS011;20784;51.332;12.410;2022-09-21T04:34:39;9.68;;;5.57;;
34541;SDS011;20784;51.332;12.410;2022-09-21T04:37:05;9.85;;;4.97;;
34541;SDS011;20784;51.332;12.410;2022-09-21T04:39:38;8.80;;;4.93;;
34541;SDS011;20784;51.332;12.410;2022-09-21T04:42:04;10.65;;;5.47;;
34541;SDS011;20784;51.332;12.410;2022-09-21T04:44:31;12.57;;;5.47;;
34541;SDS011;20784;51.332;12.410;2022-09-21T04:46:56;9.88;;;5.53;;
34541;SDS011;20784;51.332;12.410;2022-09-21T04:49:23;7.68;;;5.80;;
34541;SDS011;20784;51.332;12.410;2022-09-21T04:51:48;10.35;;;5.85;;
34541;SDS011;20784;51.332;12.410;2022-09-21T04:54:17;9.15;;;5.72;;
34541;SDS011;20784;51.332;12.410;2022-09-21T04:56:42;9.50;;;5.60;;
34541;SDS011;20784;51.332;12.410;2022-09-21T04:59:14;8.57;;;5.13;;
34541;SDS011;20784;51.332;12.410;2022-09-21T05:01:40;13.75;;;6.50;;
34541;SDS011;20784;51.332;12.410;2022-09-21T05:04:08;7.50;;;5.80;;
34541;SDS011;20784;51.332;12.410;2022-09-21T05:06:39;11.63;;;5.68;;
34541;SDS011;20784;51.332;12.410;2022-09-21T05:09:05;8.18;;;5.40;;
34541;SDS011;20784;51.332;12.410;2022-09-21T05:11:49;11.85;;;7.05;;
34541;SDS011;20784;51.332;12.410;2022-09-21T05:14:18;9.27;;;6.03;;
34541;SDS011;20784;51.332;12.410;2022-09-21T05:16:49;9.50;;;5.72;;
34541;SDS011;20784;51.332;12.410;2022-09-21T05:19:32;12.63;;;6.80;;
34541;SDS011;20784;51.332;12.410;2022-09-21T05:22:03;15.25;;;6.25;;
34541;SDS011;20784;51.332;12.410;2022-09-21T05:24:29;8.18;;;5.53;;
34541;SDS011;20784;51.332;12.410;2022-09-21T05:27:18;12.25;;;5.50;;
34541;SDS011;20784;51.332;12.410;2022-09-21T05:29:48;10.47;;;5.67;;
34541;SDS011;20784;51.332;12.410;2022-09-21T05:34:48;11.40;;;5.60;;
34541;SDS011;20784;51.332;12.410;2022-09-21T05:40:21;11.35;;;5.35;;
34541;SDS011;20784;51.332;12.410;2022-09-21T05:42:47;16.05;;;5.80;;
34541;SDS011;20784;51.332;12.410;2022-09-21T05:45:16;12.00;;;5.90;;
34541;SDS011;20784;51.332;12.410;2022-09-21T05:47:54;10.63;;;5.72;;
34541;SDS011;20784;51.332;12.410;2022-09-21T05:50:52;12.00;;;5.20;;
34541;SDS011;20784;51.332;12.410;2022-09-21T05:53:47;15.63;;;5.47;;
34541;SDS011;20784;51.332;12.410;2022-09-21T05:59:11;12.40;;;6.30;;
34541;SDS011;20784;51.332;12.410;2022-09-21T06:04:18;11.75;;;5.50;;
34541;SDS011;20784;51.332;12.410;2022-09-21T06:06:47;8.15;;;5.60;;
34541;SDS011;20784;51.332;12.410;2022-09-21T06:09:13;9.57;;;5.93;;
34541;SDS011;20784;51.332;12.410;2022-09-21T06:11:42;11.00;;;5.88;;
34541;SDS011;20784;51.332;12.410;2022-09-21T06:14:07;15.65;;;6.22;;
34541;SDS011;20784;51.332;12.410;2022-09-21T06:16:39;11.95;;;5.97;;
34541;SDS011;20784;51.332;12.410;2022-09-21T06:19:09;11.60;;;6.10;;
34541;SDS011;20784;51.332;12.410;2022-09-21T06:21:36;9.82;;;5.80;;
34541;SDS011;20784;51.332;12.410;2022-09-21T06:24:02;12.70;;;6.13;;
34541;SDS011;20784;51.332;12.410;2022-09-21T06:26:30;8.55;;;5.30;;
34541;SDS011;20784;51.332;12.410;2022-09-21T06:28:56;11.05;;;5.55;;
34541;SDS011;20784;51.332;12.410;2022-09-21T06:31:21;10.55;;;5.80;;
34541;SDS011;20784;51.332;12.410;2022-09-21T06:33:47;8.05;;;5.03;;
34541;SDS011;20784;51.332;12.410;2022-09-21T06:36:12;12.25;;;5.90;;
34541;SDS011;20784;51.332;12.410;2022-09-21T06:38:39;9.00;;;5.57;;
34541;SDS011;20784;51.332;12.410;2022-09-21T06:41:04;8.75;;;6.03;;
34541;SDS011;20784;51.332;12.410;2022-09-21T06:43:30;9.95;;;5.43;;
34541;SDS011;20784;51.332;12.410;2022-09-21T06:45:57;11.70;;;5.30;;
34541;SDS011;20784;51.332;12.410;2022-09-21T06:48:24;10.85;;;4.95;;
34541;SDS011;20784;51.332;12.410;2022-09-21T06:50:55;11.13;;;5.65;;
34541;SDS011;20784;51.332;12.410;2022-09-21T06:53:28;10.75;;;5.72;;
34541;SDS011;20784;51.332;12.410;2022-09-21T06:56:04;14.32;;;6.05;;
34541;SDS011;20784;51.332;12.410;2022-09-21T06:58:31;9.65;;;5.57;;
34541;SDS011;20784;51.332;12.410;2022-09-21T07:01:03;12.82;;;5.35;;
34541;SDS011;20784;51.332;12.410;2022-09-21T07:03:32;14.50;;;5.75;;
34541;SDS011;20784;51.332;12.410;2022-09-21T07:05:58;12.18;;;5.72;;
34541;SDS011;20784;51.332;12.410;2022-09-21T07:08:24;10.13;;;5.72;;
34541;SDS011;20784;51.332;12.410;2022-09-21T07:10:51;9.65;;;5.75;;
34541;SDS011;20784;51.332;12.410;2022-09-21T07:13:19;12.85;;;5.35;;
34541;SDS011;20784;51.332;12.410;2022-09-21T07:15:44;11.48;;;5.68;;
34541;SDS011;20784;51.332;12.410;2022-09-21T07:18:11;15.40;;;5.97;;
34541;SDS011;20784;51.332;12.410;2022-09-21T07:20:39;11.30;;;5.72;;
34541;SDS011;20784;51.332;12.410;2022-09-21T07:23:12;9.18;;;5.43;;
34541;SDS011;20784;51.332;12.410;2022-09-21T07:25:42;13.07;;;5.82;;
34541;SDS011;20784;51.332;12.410;2022-09-21T07:28:18;8.75;;;5.28;;
34541;SDS011;20784;51.332;12.410;2022-09-21T07:30:46;11.23;;;5.70;;
34541;SDS011;20784;51.332;12.410;2022-09-21T07:33:12;10.13;;;6.22;;
34541;SDS011;20784;51.332;12.410;2022-09-21T07:35:53;12.35;;;6.03;;
34541;SDS011;20784;51.332;12.410;2022-09-21T07:38:21;15.15;;;5.82;;
34541;SDS011;20784;51.332;12.410;2022-09-21T07:40:49;14.30;;;5.35;;
34541;SDS011;20784;51.332;12.410;2022-09-21T07:43:29;12.70;;;5.28;;
34541;SDS011;20784;51.332;12.410;2022-09-21T07:45:55;13.77;;;5.60;;
34541;SDS011;20784;51.332;12.410;2022-09-21T07:48:23;11.70;;;5.38;;
34541;SDS011;20784;51.332;12.410;2022-09-21T07:50:49;13.80;;;5.95;;
34541;SDS011;20784;51.332;12.410;2022-09-21T07:53:27;11.95;;;5.38;;
34541;SDS011;20784;51.332;12.410;2022-09-21T07:55:52;11.43;;;5.35;;
34541;SDS011;20784;51.332;12.410;2022-09-21T07:58:25;14.27;;;5.38;;
34541;SDS011;20784;51.332;12.410;2022-09-21T08:01:12;8.95;;;5.47;;
34541;SDS011;20784;51.332;12.410;2022-09-21T08:03:47;12.82;;;4.65;;
34541;SDS011;20784;51.332;12.410;2022-09-21T08:06:17;8.40;;;4.60;;
34541;SDS011;20784;51.332;12.410;2022-09-21T08:08:46;14.10;;;4.60;;
34541;SDS011;20784;51.332;12.410;2022-09-21T08:11:18;7.28;;;4.85;;
34541;SDS011;20784;51.332;12.410;2022-09-21T08:13:46;12.57;;;4.72;;
34541;SDS011;20784;51.332;12.410;2022-09-21T08:16:26;7.95;;;4.07;;
34541;SDS011;20784;51.332;12.410;2022-09-21T08:18:53;14.43;;;5.55;;
34541;SDS011;20784;51.332;12.410;2022-09-21T08:21:19;16.90;;;4.88;;
34541;SDS011;20784;51.332;12.410;2022-09-21T08:23:47;15.85;;;5.25;;
34541;SDS011;20784;51.332;12.410;2022-09-21T08:26:24;9.80;;;4.68;;
34541;SDS011;20784;51.332;12.410;2022-09-21T08:29:02;8.10;;;4.47;;
34541;SDS011;20784;51.332;12.410;2022-09-21T08:31:31;9.05;;;4.07;;
34541;SDS011;20784;51.332;12.410;2022-09-21T08:34:00;7.72;;;4.72;;
34541;SDS011;20784;51.332;12.410;2022-09-21T08:36:41;12.35;;;4.38;;
34541;SDS011;20784;51.332;12.410;2022-09-21T08:39:13;8.13;;;4.30;;
34541;SDS011;20784;51.332;12.410;2022-09-21T08:45:01;11.65;;;4.43;;
34541;SDS011;20784;51.332;12.410;2022-09-21T08:50:10;11.50;;;4.82;;
34541;SDS011;20784;51.332;12.410;2022-09-21T08:55:38;12.50;;;4.10;;
34541;SDS011;20784;51.332;12.410;2022-09-21T08:58:08;9.40;;;3.85;;
34541;SDS011;20784;51.332;12.410;2022-09-21T09:03:28;9.23;;;4.18;;
34541;SDS011;20784;51.332;12.410;2022-09-21T09:06:12;10.27;;;4.82;;
34541;SDS011;20784;51.332;12.410;2022-09-21T09:14:46;8.65;;;3.90;;
34541;SDS011;20784;51.332;12.410;2022-09-21T09:17:55;6.18;;;3.60;;
34541;SDS011;20784;51.332;12.410;2022-09-21T09:25:53;8.70;;;3.78;;
34541;SDS011;20784;51.332;12.410;2022-09-21T09:28:34;17.10;;;3.90;;
34541;SDS011;20784;51.332;12.410;2022-09-21T09:31:32;9.75;;;3.90;;
34541;SDS011;20784;51.332;12.410;2022-09-21T09:34:10;9.82;;;4.45;;
34541;SDS011;20784;51.332;12.410;2022-09-21T09:36:43;11.70;;;3.80;;
34541;SDS011;20784;51.332;12.410;2022-09-21T09:39:13;9.10;;;3.90;;
34541;SDS011;20784;51.332;12.410;2022-09-21T09:41:45;9.13;;;3.78;;
34541;SDS011;20784;51.332;12.410;2022-09-21T09:49:59;6.88;;;3.33;;
34541;SDS011;20784;51.332;12.410;2022-09-21T09:52:32;11.40;;;3.80;;
34541;SDS011;20784;51.332;12.410;2022-09-21T09:54:59;7.90;;;3.70;;
34541;SDS011;20784;51.332;12.410;2022-09-21T09:57:29;9.85;;;3.35;;
34541;SDS011;20784;51.332;12.410;2022-09-21T10:02:27;6.07;;;3.20;;
34541;SDS011;20784;51.332;12.410;2022-09-21T10:15:47;8.25;;;2.55;;
34541;SDS011;20784;51.332;12.410;2022-09-21T10:18:16;6.72;;;2.00;;
34541;SDS011;20784;51.332;12.410;2022-09-21T10:21:02;6.78;;;2.10;;
34541;SDS011;20784;51.332;12.410;2022-09-21T10:23:33;5.05;;;2.10;;
34541;SDS011;20784;51.332;12.410;2022-09-21T10:26:01;5.47;;;2.28;;
34541;SDS011;20784;51.332;12.410;2022-09-21T10:28:36;6.78;;;1.73;;
34541;SDS011;20784;51.332;12.410;2022-09-21T10:31:36;4.68;;;1.70;;
34541;SDS011;20784;51.332;12.410;2022-09-21T10:36:40;5.63;;;1.77;;
34541;SDS011;20784;51.332;12.410;2022-09-21T10:39:32;5.97;;;2.17;;
34541;SDS011;20784;51.332;12.410;2022-09-21T10:42:13;4.18;;;1.90;;
34541;SDS011;20784;51.332;12.410;2022-09-21T10:44:42;4.78;;;2.00;;
34541;SDS011;20784;51.332;12.410;2022-09-21T10:49:58;9.82;;;2.40;;
34541;SDS011;20784;51.332;12.410;2022-09-21T10:52:33;6.30;;;2.25;;
34541;SDS011;20784;51.332;12.410;2022-09-21T10:55:01;6.28;;;1.90;;
34541;SDS011;20784;51.332;12.410;2022-09-21T10:57:27;9.68;;;2.10;;
34541;SDS011;20784;51.332;12.410;2022-09-21T11:00:43;8.50;;;1.63;;
34541;SDS011;20784;51.332;12.410;2022-09-21T11:02:45;3.58;;;1.42;;
34541;SDS011;20784;51.332;12.410;2022-09-21T11:16:30;3.40;;;0.80;;
34541;SDS011;20784;51.332;12.410;2022-09-21T11:27:36;5.13;;;1.30;;
34541;SDS011;20784;51.332;12.410;2022-09-21T11:32:50;4.47;;;1.60;;
34541;SDS011;20784;51.332;12.410;2022-09-21T11:35:33;4.63;;;1.30;;
34541;SDS011;20784;51.332;12.410;2022-09-21T11:49:51;3.90;;;1.38;;
34541;SDS011;20784;51.332;12.410;2022-09-21T11:53:07;3.67;;;1.30;;
34541;SDS011;20784;51.332;12.410;2022-09-21T12:04:42;4.68;;;1.38;;
34541;SDS011;20784;51.332;12.410;2022-09-21T12:22:30;4.43;;;1.10;;
34541;SDS011;20784;51.332;12.410;2022-09-21T12:24:48;3.88;;;1.00;;
34541;SDS011;20784;51.332;12.410;2022-09-21T12:27:27;4.38;;;1.23;;
34541;SDS011;20784;51.332;12.410;2022-09-21T12:30:11;5.30;;;1.00;;
34541;SDS011;20784;51.332;12.410;2022-09-21T12:38:08;9.90;;;1.10;;
34541;SDS011;20784;51.332;12.410;2022-09-21T12:43:59;4.25;;;1.27;;
34541;SDS011;20784;51.332;12.410;2022-09-21T12:46:30;4.38;;;1.20;;
34541;SDS011;20784;51.332;12.410;2022-09-21T12:49:00;3.40;;;1.25;;
34541;SDS011;20784;51.332;12.410;2022-09-21T12:51:40;4.45;;;1.08;;
34541;SDS011;20784;51.332;12.410;2022-09-21T12:56:47;3.63;;;0.90;;
34541;SDS011;20784;51.332;12.410;2022-09-21T13:02:25;2.20;;;0.95;;
34541;SDS011;20784;51.332;12.410;2022-09-21T13:05:21;4.03;;;0.90;;
34541;SDS011;20784;51.332;12.410;2022-09-21T13:10:37;2.85;;;0.90;;
34541;SDS011;20784;51.332;12.410;2022-09-21T13:22:20;4.53;;;0.80;;
34541;SDS011;20784;51.332;12.410;2022-09-21T13:24:59;4.63;;;1.00;;
34541;SDS011;20784;51.332;12.410;2022-09-21T13:30:45;2.53;;;1.33;;
34541;SDS011;20784;51.332;12.410;2022-09-21T13:33:39;2.93;;;1.30;;
34541;SDS011;20784;51.332;12.410;2022-09-21T13:36:35;2.50;;;1.13;;
34541;SDS011;20784;51.332;12.410;2022-09-21T13:39:12;2.97;;;1.13;;
34541;SDS011;20784;51.332;12.410;2022-09-21T13:41:43;3.83;;;1.10;;
34541;SDS011;20784;51.332;12.410;2022-09-21T13:44:18;4.05;;;0.93;;
34541;SDS011;20784;51.332;12.410;2022-09-21T13:46:59;2.47;;;1.17;;
34541;SDS011;20784;51.332;12.410;2022-09-21T13:49:49;2.80;;;1.02;;
34541;SDS011;20784;51.332;12.410;2022-09-21T13:55:00;3.17;;;1.20;;
34541;SDS011;20784;51.332;12.410;2022-09-21T13:57:44;3.60;;;1.13;;
34541;SDS011;20784;51.332;12.410;2022-09-21T14:03:16;3.03;;;1.13;;
34541;SDS011;20784;51.332;12.410;2022-09-21T14:06:05;2.90;;;1.20;;
34541;SDS011;20784;51.332;12.410;2022-09-21T14:09:02;4.85;;;1.20;;
34541;SDS011;20784;51.332;12.410;2022-09-21T14:11:34;2.65;;;1.02;;
34541;SDS011;20784;51.332;12.410;2022-09-21T14:16:52;5.60;;;1.23;;
34541;SDS011;20784;51.332;12.410;2022-09-21T14:24:40;2.88;;;0.80;;
34541;SDS011;20784;51.332;12.410;2022-09-21T14:27:48;1.35;;;0.82;;
34541;SDS011;20784;51.332;12.410;2022-09-21T14:35:31;2.00;;;0.75;;
34541;SDS011;20784;51.332;12.410;2022-09-21T14:38:02;3.00;;;0.90;;
34541;SDS011;20784;51.332;12.410;2022-09-21T14:40:37;1.95;;;0.80;;
34541;SDS011;20784;51.332;12.410;2022-09-21T14:46:02;1.67;;;0.60;;
34541;SDS011;20784;51.332;12.410;2022-09-21T14:48:57;1.50;;;0.70;;
34541;SDS011;20784;51.332;12.410;2022-09-21T14:54:31;2.33;;;0.93;;
34541;SDS011;20784;51.332;12.410;2022-09-21T15:00:11;2.47;;;1.00;;
34541;SDS011;20784;51.332;12.410;2022-09-21T15:02:45;1.67;;;0.95;;
34541;SDS011;20784;51.332;12.410;2022-09-21T15:11:30;3.22;;;0.98;;
34541;SDS011;20784;51.332;12.410;2022-09-21T15:14:23;1.10;;;0.82;;
34541;SDS011;20784;51.332;12.410;2022-09-21T15:16:59;3.95;;;0.80;;
34541;SDS011;20784;51.332;12.410;2022-09-21T15:19:26;2.67;;;0.90;;
34541;SDS011;20784;51.332;12.410;2022-09-21T15:24:34;2.78;;;0.90;;
34541;SDS011;20784;51.332;12.410;2022-09-21T15:27:15;2.10;;;0.80;;
34541;SDS011;20784;51.332;12.410;2022-09-21T15:30:02;5.80;;;1.35;;
34541;SDS011;20784;51.332;12.410;2022-09-21T15:32:58;1.42;;;0.82;;
34541;SDS011;20784;51.332;12.410;2022-09-21T15:35:42;4.40;;;1.60;;
34541;SDS011;20784;51.332;12.410;2022-09-21T15:38:28;2.08;;;1.00;;
34541;SDS011;20784;51.332;12.410;2022-09-21T15:41:08;2.15;;;1.13;;
34541;SDS011;20784;51.332;12.410;2022-09-21T15:44:17;3.55;;;1.10;;
34541;SDS011;20784;51.332;12.410;2022-09-21T15:46:53;1.17;;;0.80;;
34541;SDS011;20784;51.332;12.410;2022-09-21T15:49:24;3.67;;;0.90;;
34541;SDS011;20784;51.332;12.410;2022-09-21T15:51:57;2.60;;;1.00;;
34541;SDS011;20784;51.332;12.410;2022-09-21T15:59:59;4.10;;;1.20;;
34541;SDS011;20784;51.332;12.410;2022-09-21T16:02:28;3.30;;;0.93;;
34541;SDS011;20784;51.332;12.410;2022-09-21T16:05:00;1.95;;;1.00;;
34541;SDS011;20784;51.332;12.410;2022-09-21T16:07:36;2.47;;;1.00;;
34541;SDS011;20784;51.332;12.410;2022-09-21T16:10:32;1.77;;;1.10;;
34541;SDS011;20784;51.332;12.410;2022-09-21T16:13:30;1.77;;;1.02;;
34541;SDS011;20784;51.332;12.410;2022-09-21T16:16:14;6.15;;;1.60;;
34541;SDS011;20784;51.332;12.410;2022-09-21T16:18:52;1.83;;;1.27;;
34541;SDS011;20784;51.332;12.410;2022-09-21T16:21:51;1.48;;;1.08;;
34541;SDS011;20784;51.332;12.410;2022-09-21T16:24:42;3.85;;;1.23;;
34541;SDS011;20784;51.332;12.410;2022-09-21T16:27:30;2.45;;;1.30;;
34541;SDS011;20784;51.332;12.410;2022-09-21T16:30:00;1.80;;;1.05;;
34541;SDS011;20784;51.332;12.410;2022-09-21T16:32:36;2.28;;;1.20;;
34541;SDS011;20784;51.332;12.410;2022-09-21T16:38:12;2.38;;;1.70;;
34541;SDS011;20784;51.332;12.410;2022-09-21T16:40:40;2.90;;;1.52;;
34541;SDS011;20784;51.332;12.410;2022-09-21T16:43:11;5.15;;;1.73;;
34541;SDS011;20784;51.332;12.410;2022-09-21T16:45:37;3.08;;;1.35;;
34541;SDS011;20784;51.332;12.410;2022-09-21T16:48:03;5.55;;;1.48;;
34541;SDS011;20784;51.332;12.410;2022-09-21T16:50:31;2.97;;;1.50;;
34541;SDS011;20784;51.332;12.410;2022-09-21T16:52:57;4.35;;;1.70;;
34541;SDS011;20784;51.332;12.410;2022-09-21T16:55:22;3.13;;;1.75;;
34541;SDS011;20784;51.332;12.410;2022-09-21T16:57:48;2.50;;;1.50;;
34541;SDS011;20784;51.332;12.410;2022-09-21T17:00:15;2.38;;;1.40;;
34541;SDS011;20784;51.332;12.410;2022-09-21T17:02:53;3.22;;;1.65;;
34541;SDS011;20784;51.332;12.410;2022-09-21T17:05:39;9.02;;;3.35;;
34541;SDS011;20784;51.332;12.410;2022-09-21T17:08:05;4.03;;;2.20;;
34541;SDS011;20784;51.332;12.410;2022-09-21T17:10:33;5.70;;;2.22;;
34541;SDS011;20784;51.332;12.410;2022-09-21T17:13:10;6.03;;;1.90;;
34541;SDS011;20784;51.332;12.410;2022-09-21T17:15:37;7.78;;;1.92;;
34541;SDS011;20784;51.332;12.410;2022-09-21T17:18:08;5.47;;;1.73;;
34541;SDS011;20784;51.332;12.410;2022-09-21T17:20:37;7.78;;;2.15;;
34541;SDS011;20784;51.332;12.410;2022-09-21T17:23:07;7.53;;;2.30;;
34541;SDS011;20784;51.332;12.410;2022-09-21T17:25:34;7.63;;;2.10;;
34541;SDS011;20784;51.332;12.410;2022-09-21T17:28:01;6.13;;;2.42;;
34541;SDS011;20784;51.332;12.410;2022-09-21T17:30:29;6.95;;;2.65;;
34541;SDS011;20784;51.332;12.410;2022-09-21T17:32:58;5.78;;;3.05;;
34541;SDS011;20784;51.332;12.410;2022-09-21T17:35:31;4.70;;;3.20;;
34541;SDS011;20784;51.332;12.410;2022-09-21T17:38:07;4.97;;;2.95;;
34541;SDS011;20784;51.332;12.410;2022-09-21T17:40:41;6.38;;;3.80;;
34541;SDS011;20784;51.332;12.410;2022-09-21T17:43:42;8.23;;;4.25;;
34541;SDS011;20784;51.332;12.410;2022-09-21T17:49:44;12.07;;;3.28;;
34541;SDS011;20784;51.332;12.410;2022-09-21T17:52:15;11.25;;;3.67;;
34541;SDS011;20784;51.332;12.410;2022-09-21T17:55:01;4.15;;;3.17;;
34541;SDS011;20784;51.332;12.410;2022-09-21T18:00:17;8.60;;;4.03;;
34541;SDS011;20784;51.332;12.410;2022-09-21T18:02:45;11.48;;;3.83;;
34541;SDS011;20784;51.332;12.410;2022-09-21T18:05:23;6.45;;;3.60;;
34541;SDS011;20784;51.332;12.410;2022-09-21T18:07:50;5.85;;;3.80;;
34541;SDS011;20784;51.332;12.410;2022-09-21T18:10:19;9.85;;;4.20;;
34541;SDS011;20784;51.332;12.410;2022-09-21T18:13:02;10.37;;;4.17;;
34541;SDS011;20784;51.332;12.410;2022-09-21T18:21:24;9.00;;;4.72;;
34541;SDS011;20784;51.332;12.410;2022-09-21T18:24:06;10.43;;;5.10;;
34541;SDS011;20784;51.332;12.410;2022-09-21T18:26:51;7.70;;;4.20;;
34541;SDS011;20784;51.332;12.410;2022-09-21T18:34:39;9.25;;;4.40;;
34541;SDS011;20784;51.332;12.410;2022-09-21T18:37:28;10.48;;;4.53;;
34541;SDS011;20784;51.332;12.410;2022-09-21T18:42:53;63.67;;;44.70;;
34541;SDS011;20784;51.332;12.410;2022-09-21T18:48:10;38.20;;;25.65;;
34541;SDS011;20784;51.332;12.410;2022-09-21T18:51:05;56.42;;;38.80;;
34541;SDS011;20784;51.332;12.410;2022-09-21T18:53:44;8.93;;;5.22;;
34541;SDS011;20784;51.332;12.410;2022-09-21T18:56:11;10.35;;;4.43;;
34541;SDS011;20784;51.332;12.410;2022-09-21T18:58:38;8.20;;;4.47;;
34541;SDS011;20784;51.332;12.410;2022-09-21T19:01:07;7.07;;;4.55;;
34541;SDS011;20784;51.332;12.410;2022-09-21T19:03:40;8.63;;;4.80;;
34541;SDS011;20784;51.332;12.410;2022-09-21T19:14:53;11.38;;;5.13;;
34541;SDS011;20784;51.332;12.410;2022-09-21T19:20:40;9.80;;;5.22;;
34541;SDS011;20784;51.332;12.410;2022-09-21T19:23:40;16.15;;;5.85;;
34541;SDS011;20784;51.332;12.410;2022-09-21T19:31:48;11.05;;;6.18;;